sensor_id;sensor_type;location;lat;lon;timestamp;P1;durP1;ratioP1;P2;durP2;ratioP2
52035;SDS011;38046;49.448;32.074;2022-07-19T00:00:47;1.90;;;1.70;;
52035;SDS011;38046;49.448;32.074;2022-07-19T00:03:13;1.70;;;1.60;;
52035;SDS011;38046;49.448;32.074;2022-07-19T00:05:39;1.10;;;1.10;;
52035;SDS011;38046;49.448;32.074;2022-07-19T00:08:05;1.30;;;1.20;;
52035;SDS011;38046;49.448;32.074;2022-07-19T00:10:31;1.52;;;1.00;;
52035;SDS011;38046;49.448;32.074;2022-07-19T00:12:56;1.58;;;1.35;;
52035;SDS011;38046;49.448;32.074;2022-07-19T00:15:22;1.65;;;1.55;;
52035;SDS011;38046;49.448;32.074;2022-07-19T00:17:48;1.35;;;1.25;;
52035;SDS011;38046;49.448;32.074;2022-07-19T00:20:16;1.70;;;1.38;;
52035;SDS011;38046;49.448;32.074;2022-07-19T00:22:43;1.38;;;1.27;;
52035;SDS011;38046;49.448;32.074;2022-07-19T00:25:09;1.20;;;1.10;;
52035;SDS011;38046;49.448;32.074;2022-07-19T00:27:35;1.50;;;1.40;;
52035;SDS011;38046;49.448;32.074;2022-07-19T00:30:02;2.47;;;1.67;;
52035;SDS011;38046;49.448;32.074;2022-07-19T00:32:29;1.23;;;1.17;;
52035;SDS011;38046;49.448;32.074;2022-07-19T00:34:55;1.52;;;1.42;;
52035;SDS011;38046;49.448;32.074;2022-07-19T00:37:20;1.70;;;1.60;;
52035;SDS011;38046;49.448;32.074;2022-07-19T00:39:46;1.60;;;1.50;;
52035;SDS011;38046;49.448;32.074;2022-07-19T00:42:12;1.98;;;1.70;;
52035;SDS011;38046;49.448;32.074;2022-07-19T00:44:39;1.60;;;1.50;;
52035;SDS011;38046;49.448;32.074;2022-07-19T00:47:05;1.90;;;1.80;;
52035;SDS011;38046;49.448;32.074;2022-07-19T00:49:32;2.90;;;1.88;;
52035;SDS011;38046;49.448;32.074;2022-07-19T00:51:57;2.35;;;2.10;;
52035;SDS011;38046;49.448;32.074;2022-07-19T00:54:24;3.05;;;2.00;;
52035;SDS011;38046;49.448;32.074;2022-07-19T00:56:51;2.08;;;1.60;;
52035;SDS011;38046;49.448;32.074;2022-07-19T00:59:17;2.10;;;1.90;;
52035;SDS011;38046;49.448;32.074;2022-07-19T01:01:43;2.17;;;1.98;;
52035;SDS011;38046;49.448;32.074;2022-07-19T01:04:10;1.90;;;1.77;;
52035;SDS011;38046;49.448;32.074;2022-07-19T01:06:36;1.90;;;1.77;;
52035;SDS011;38046;49.448;32.074;2022-07-19T01:09:02;1.70;;;1.60;;
52035;SDS011;38046;49.448;32.074;2022-07-19T01:11:28;2.20;;;2.00;;
52035;SDS011;38046;49.448;32.074;2022-07-19T01:13:54;2.35;;;1.90;;
52035;SDS011;38046;49.448;32.074;2022-07-19T01:16:20;1.60;;;1.45;;
52035;SDS011;38046;49.448;32.074;2022-07-19T01:18:46;1.80;;;1.70;;
52035;SDS011;38046;49.448;32.074;2022-07-19T01:21:18;2.05;;;1.83;;
52035;SDS011;38046;49.448;32.074;2022-07-19T01:23:48;1.88;;;1.77;;
52035;SDS011;38046;49.448;32.074;2022-07-19T01:26:14;1.50;;;1.50;;
52035;SDS011;38046;49.448;32.074;2022-07-19T01:28:40;1.77;;;1.67;;
52035;SDS011;38046;49.448;32.074;2022-07-19T01:31:06;2.20;;;2.00;;
52035;SDS011;38046;49.448;32.074;2022-07-19T01:33:33;2.03;;;1.90;;
52035;SDS011;38046;49.448;32.074;2022-07-19T01:36:07;2.22;;;1.98;;
52035;SDS011;38046;49.448;32.074;2022-07-19T01:38:33;1.92;;;1.83;;
52035;SDS011;38046;49.448;32.074;2022-07-19T01:40:59;2.22;;;1.90;;
52035;SDS011;38046;49.448;32.074;2022-07-19T01:43:24;2.03;;;1.73;;
52035;SDS011;38046;49.448;32.074;2022-07-19T01:45:50;1.88;;;1.70;;
52035;SDS011;38046;49.448;32.074;2022-07-19T01:48:18;2.63;;;1.83;;
52035;SDS011;38046;49.448;32.074;2022-07-19T01:50:44;1.88;;;1.77;;
52035;SDS011;38046;49.448;32.074;2022-07-19T01:53:10;2.83;;;2.10;;
52035;SDS011;38046;49.448;32.074;2022-07-19T01:55:36;2.13;;;1.92;;
52035;SDS011;38046;49.448;32.074;2022-07-19T01:58:01;2.15;;;1.95;;
52035;SDS011;38046;49.448;32.074;2022-07-19T02:00:27;2.20;;;2.00;;
52035;SDS011;38046;49.448;32.074;2022-07-19T02:02:53;2.28;;;2.00;;
52035;SDS011;38046;49.448;32.074;2022-07-19T02:05:18;2.90;;;2.17;;
52035;SDS011;38046;49.448;32.074;2022-07-19T02:07:44;2.55;;;2.10;;
52035;SDS011;38046;49.448;32.074;2022-07-19T02:10:10;2.33;;;2.13;;
52035;SDS011;38046;49.448;32.074;2022-07-19T02:12:36;2.08;;;1.90;;
52035;SDS011;38046;49.448;32.074;2022-07-19T02:15:02;3.03;;;2.45;;
52035;SDS011;38046;49.448;32.074;2022-07-19T02:17:28;2.10;;;2.00;;
52035;SDS011;38046;49.448;32.074;2022-07-19T02:19:54;2.05;;;1.92;;
52035;SDS011;38046;49.448;32.074;2022-07-19T02:22:20;2.30;;;2.08;;
52035;SDS011;38046;49.448;32.074;2022-07-19T02:24:46;2.40;;;2.20;;
52035;SDS011;38046;49.448;32.074;2022-07-19T02:27:11;2.25;;;2.08;;
52035;SDS011;38046;49.448;32.074;2022-07-19T02:29:37;2.33;;;1.95;;
52035;SDS011;38046;49.448;32.074;2022-07-19T02:32:03;2.85;;;2.00;;
52035;SDS011;38046;49.448;32.074;2022-07-19T02:34:29;2.08;;;1.88;;
52035;SDS011;38046;49.448;32.074;2022-07-19T02:36:55;1.88;;;1.77;;
52035;SDS011;38046;49.448;32.074;2022-07-19T02:39:21;1.80;;;1.70;;
52035;SDS011;38046;49.448;32.074;2022-07-19T02:41:47;1.85;;;1.75;;
52035;SDS011;38046;49.448;32.074;2022-07-19T02:44:13;1.73;;;1.63;;
52035;SDS011;38046;49.448;32.074;2022-07-19T02:46:38;2.38;;;2.00;;
52035;SDS011;38046;49.448;32.074;2022-07-19T02:49:04;1.98;;;1.65;;
52035;SDS011;38046;49.448;32.074;2022-07-19T02:51:29;2.00;;;1.80;;
52035;SDS011;38046;49.448;32.074;2022-07-19T02:53:55;1.45;;;1.40;;
52035;SDS011;38046;49.448;32.074;2022-07-19T02:56:21;1.75;;;1.65;;
52035;SDS011;38046;49.448;32.074;2022-07-19T02:58:46;2.10;;;1.90;;
52035;SDS011;38046;49.448;32.074;2022-07-19T03:01:12;1.65;;;1.55;;
52035;SDS011;38046;49.448;32.074;2022-07-19T03:03:37;1.73;;;1.58;;
52035;SDS011;38046;49.448;32.074;2022-07-19T03:06:10;2.00;;;1.58;;
52035;SDS011;38046;49.448;32.074;2022-07-19T03:08:36;1.55;;;1.45;;
52035;SDS011;38046;49.448;32.074;2022-07-19T03:11:02;1.80;;;1.70;;
52035;SDS011;38046;49.448;32.074;2022-07-19T03:13:28;2.20;;;2.00;;
52035;SDS011;38046;49.448;32.074;2022-07-19T03:15:53;2.38;;;1.70;;
52035;SDS011;38046;49.448;32.074;2022-07-19T03:18:19;1.60;;;1.50;;
52035;SDS011;38046;49.448;32.074;2022-07-19T03:20:45;1.73;;;1.38;;
52035;SDS011;38046;49.448;32.074;2022-07-19T03:23:11;1.42;;;1.33;;
52035;SDS011;38046;49.448;32.074;2022-07-19T03:25:36;1.38;;;1.27;;
52035;SDS011;38046;49.448;32.074;2022-07-19T03:28:02;1.70;;;1.60;;
52035;SDS011;38046;49.448;32.074;2022-07-19T03:30:28;2.47;;;1.85;;
52035;SDS011;38046;49.448;32.074;2022-07-19T03:32:54;2.53;;;1.80;;
52035;SDS011;38046;49.448;32.074;2022-07-19T03:35:19;1.88;;;1.67;;
52035;SDS011;38046;49.448;32.074;2022-07-19T03:37:45;1.58;;;1.48;;
52035;SDS011;38046;49.448;32.074;2022-07-19T03:40:12;1.70;;;1.27;;
52035;SDS011;38046;49.448;32.074;2022-07-19T03:42:37;3.00;;;1.88;;
52035;SDS011;38046;49.448;32.074;2022-07-19T03:45:03;1.33;;;1.23;;
52035;SDS011;38046;49.448;32.074;2022-07-19T03:47:30;1.42;;;1.33;;
52035;SDS011;38046;49.448;32.074;2022-07-19T03:49:55;1.58;;;1.48;;
52035;SDS011;38046;49.448;32.074;2022-07-19T03:52:22;1.10;;;1.10;;
52035;SDS011;38046;49.448;32.074;2022-07-19T03:54:48;1.30;;;1.20;;
52035;SDS011;38046;49.448;32.074;2022-07-19T03:57:14;1.60;;;1.30;;
52035;SDS011;38046;49.448;32.074;2022-07-19T03:59:39;0.80;;;0.77;;
52035;SDS011;38046;49.448;32.074;2022-07-19T04:02:05;1.10;;;0.85;;
52035;SDS011;38046;49.448;32.074;2022-07-19T04:04:31;0.82;;;0.82;;
52035;SDS011;38046;49.448;32.074;2022-07-19T04:06:57;0.80;;;0.80;;
52035;SDS011;38046;49.448;32.074;2022-07-19T04:09:22;1.40;;;1.30;;
52035;SDS011;38046;49.448;32.074;2022-07-19T04:11:48;1.13;;;0.93;;
52035;SDS011;38046;49.448;32.074;2022-07-19T04:14:14;1.50;;;1.25;;
52035;SDS011;38046;49.448;32.074;2022-07-19T04:16:40;1.40;;;1.30;;
52035;SDS011;38046;49.448;32.074;2022-07-19T04:19:06;1.02;;;0.95;;
52035;SDS011;38046;49.448;32.074;2022-07-19T04:21:31;1.58;;;1.00;;
52035;SDS011;38046;49.448;32.074;2022-07-19T04:23:57;1.50;;;1.30;;
52035;SDS011;38046;49.448;32.074;2022-07-19T04:26:23;2.40;;;0.80;;
52035;SDS011;38046;49.448;32.074;2022-07-19T04:28:48;0.90;;;0.90;;
52035;SDS011;38046;49.448;32.074;2022-07-19T04:31:14;1.40;;;1.27;;
52035;SDS011;38046;49.448;32.074;2022-07-19T04:33:40;0.98;;;0.98;;
52035;SDS011;38046;49.448;32.074;2022-07-19T04:36:06;1.20;;;1.10;;
52035;SDS011;38046;49.448;32.074;2022-07-19T04:38:31;1.00;;;1.00;;
52035;SDS011;38046;49.448;32.074;2022-07-19T04:40:57;1.20;;;1.10;;
52035;SDS011;38046;49.448;32.074;2022-07-19T04:43:23;1.38;;;1.05;;
52035;SDS011;38046;49.448;32.074;2022-07-19T04:45:48;1.02;;;0.95;;
52035;SDS011;38046;49.448;32.074;2022-07-19T04:48:14;1.23;;;1.08;;
52035;SDS011;38046;49.448;32.074;2022-07-19T04:50:40;0.98;;;0.90;;
52035;SDS011;38046;49.448;32.074;2022-07-19T04:53:06;1.17;;;1.08;;
52035;SDS011;38046;49.448;32.074;2022-07-19T04:55:32;0.68;;;0.68;;
52035;SDS011;38046;49.448;32.074;2022-07-19T04:57:58;1.10;;;1.00;;
52035;SDS011;38046;49.448;32.074;2022-07-19T05:00:24;0.75;;;0.70;;
52035;SDS011;38046;49.448;32.074;2022-07-19T05:02:50;0.88;;;0.88;;
52035;SDS011;38046;49.448;32.074;2022-07-19T05:05:18;1.60;;;1.50;;
52035;SDS011;38046;49.448;32.074;2022-07-19T05:07:44;0.65;;;0.63;;
52035;SDS011;38046;49.448;32.074;2022-07-19T05:10:10;1.25;;;1.15;;
52035;SDS011;38046;49.448;32.074;2022-07-19T05:12:36;1.58;;;0.98;;
52035;SDS011;38046;49.448;32.074;2022-07-19T05:15:03;1.38;;;1.00;;
52035;SDS011;38046;49.448;32.074;2022-07-19T05:17:30;1.92;;;1.13;;
52035;SDS011;38046;49.448;32.074;2022-07-19T05:19:56;0.95;;;0.85;;
52035;SDS011;38046;49.448;32.074;2022-07-19T05:22:21;0.95;;;0.95;;
52035;SDS011;38046;49.448;32.074;2022-07-19T05:24:49;0.70;;;0.70;;
52035;SDS011;38046;49.448;32.074;2022-07-19T05:27:15;1.15;;;0.85;;
52035;SDS011;38046;49.448;32.074;2022-07-19T05:29:41;0.75;;;0.57;;
52035;SDS011;38046;49.448;32.074;2022-07-19T05:32:06;0.60;;;0.60;;
52035;SDS011;38046;49.448;32.074;2022-07-19T05:34:32;0.60;;;0.60;;
52035;SDS011;38046;49.448;32.074;2022-07-19T05:36:58;0.85;;;0.77;;
52035;SDS011;38046;49.448;32.074;2022-07-19T05:39:24;0.73;;;0.70;;
52035;SDS011;38046;49.448;32.074;2022-07-19T05:41:49;0.80;;;0.80;;
52035;SDS011;38046;49.448;32.074;2022-07-19T05:44:15;0.98;;;0.88;;
52035;SDS011;38046;49.448;32.074;2022-07-19T05:46:40;0.90;;;0.73;;
52035;SDS011;38046;49.448;32.074;2022-07-19T05:49:07;0.88;;;0.80;;
52035;SDS011;38046;49.448;32.074;2022-07-19T05:51:35;0.73;;;0.73;;
52035;SDS011;38046;49.448;32.074;2022-07-19T05:54:02;1.02;;;0.93;;
52035;SDS011;38046;49.448;32.074;2022-07-19T05:56:28;1.02;;;1.02;;
52035;SDS011;38046;49.448;32.074;2022-07-19T05:58:54;1.40;;;1.30;;
52035;SDS011;38046;49.448;32.074;2022-07-19T06:01:20;1.17;;;1.02;;
52035;SDS011;38046;49.448;32.074;2022-07-19T06:03:50;1.23;;;1.20;;
52035;SDS011;38046;49.448;32.074;2022-07-19T06:06:22;1.23;;;1.13;;
52035;SDS011;38046;49.448;32.074;2022-07-19T06:08:48;1.20;;;1.10;;
52035;SDS011;38046;49.448;32.074;2022-07-19T06:11:15;1.25;;;1.05;;
52035;SDS011;38046;49.448;32.074;2022-07-19T06:13:41;1.90;;;1.30;;
52035;SDS011;38046;49.448;32.074;2022-07-19T06:16:08;1.42;;;1.27;;
52035;SDS011;38046;49.448;32.074;2022-07-19T06:18:35;1.17;;;1.08;;
52035;SDS011;38046;49.448;32.074;2022-07-19T06:21:02;1.27;;;1.17;;
52035;SDS011;38046;49.448;32.074;2022-07-19T06:23:29;1.42;;;1.30;;
52035;SDS011;38046;49.448;32.074;2022-07-19T06:25:54;0.88;;;0.88;;
52035;SDS011;38046;49.448;32.074;2022-07-19T06:28:20;1.20;;;1.10;;
52035;SDS011;38046;49.448;32.074;2022-07-19T06:30:46;1.30;;;1.20;;
52035;SDS011;38046;49.448;32.074;2022-07-19T06:33:11;1.00;;;1.00;;
52035;SDS011;38046;49.448;32.074;2022-07-19T06:35:37;1.33;;;1.20;;
52035;SDS011;38046;49.448;32.074;2022-07-19T06:38:05;1.10;;;1.10;;
52035;SDS011;38046;49.448;32.074;2022-07-19T06:40:31;1.02;;;1.02;;
52035;SDS011;38046;49.448;32.074;2022-07-19T06:42:56;1.33;;;1.23;;
52035;SDS011;38046;49.448;32.074;2022-07-19T06:45:22;1.02;;;0.95;;
52035;SDS011;38046;49.448;32.074;2022-07-19T06:47:48;1.38;;;1.27;;
52035;SDS011;38046;49.448;32.074;2022-07-19T06:50:15;2.58;;;1.08;;
52035;SDS011;38046;49.448;32.074;2022-07-19T06:52:41;0.90;;;0.90;;
52035;SDS011;38046;49.448;32.074;2022-07-19T06:55:07;1.45;;;1.35;;
52035;SDS011;38046;49.448;32.074;2022-07-19T06:57:32;1.20;;;1.10;;
52035;SDS011;38046;49.448;32.074;2022-07-19T06:59:58;0.80;;;0.80;;
52035;SDS011;38046;49.448;32.074;2022-07-19T07:02:25;0.90;;;0.90;;
52035;SDS011;38046;49.448;32.074;2022-07-19T07:04:50;1.08;;;1.05;;
52035;SDS011;38046;49.448;32.074;2022-07-19T07:07:16;1.13;;;1.10;;
52035;SDS011;38046;49.448;32.074;2022-07-19T07:09:42;1.05;;;1.05;;
52035;SDS011;38046;49.448;32.074;2022-07-19T07:12:07;0.98;;;0.95;;
52035;SDS011;38046;49.448;32.074;2022-07-19T07:14:33;1.08;;;0.98;;
52035;SDS011;38046;49.448;32.074;2022-07-19T07:16:59;1.25;;;1.15;;
52035;SDS011;38046;49.448;32.074;2022-07-19T07:19:25;1.40;;;1.27;;
52035;SDS011;38046;49.448;32.074;2022-07-19T07:21:51;1.95;;;1.20;;
52035;SDS011;38046;49.448;32.074;2022-07-19T07:24:18;1.33;;;1.23;;
52035;SDS011;38046;49.448;32.074;2022-07-19T07:26:43;1.33;;;1.30;;
52035;SDS011;38046;49.448;32.074;2022-07-19T07:29:09;1.48;;;1.35;;
52035;SDS011;38046;49.448;32.074;2022-07-19T07:31:35;1.40;;;1.30;;
52035;SDS011;38046;49.448;32.074;2022-07-19T07:34:01;1.30;;;1.20;;
52035;SDS011;38046;49.448;32.074;2022-07-19T07:36:28;1.00;;;1.00;;
52035;SDS011;38046;49.448;32.074;2022-07-19T07:38:53;1.10;;;1.00;;
52035;SDS011;38046;49.448;32.074;2022-07-19T07:41:19;2.15;;;1.42;;
52035;SDS011;38046;49.448;32.074;2022-07-19T07:43:44;0.68;;;0.68;;
52035;SDS011;38046;49.448;32.074;2022-07-19T07:46:10;0.77;;;0.77;;
52035;SDS011;38046;49.448;32.074;2022-07-19T07:48:36;0.80;;;0.80;;
52035;SDS011;38046;49.448;32.074;2022-07-19T07:51:01;1.15;;;1.10;;
52035;SDS011;38046;49.448;32.074;2022-07-19T07:53:27;1.15;;;1.08;;
52035;SDS011;38046;49.448;32.074;2022-07-19T07:55:53;1.00;;;1.00;;
52035;SDS011;38046;49.448;32.074;2022-07-19T07:58:19;1.13;;;1.10;;
52035;SDS011;38046;49.448;32.074;2022-07-19T08:00:44;1.35;;;0.82;;
52035;SDS011;38046;49.448;32.074;2022-07-19T08:03:10;0.77;;;0.77;;
52035;SDS011;38046;49.448;32.074;2022-07-19T08:05:36;1.10;;;1.08;;
52035;SDS011;38046;49.448;32.074;2022-07-19T08:08:02;1.40;;;1.00;;
52035;SDS011;38046;49.448;32.074;2022-07-19T08:10:28;1.08;;;0.98;;
52035;SDS011;38046;49.448;32.074;2022-07-19T08:12:57;1.20;;;1.10;;
52035;SDS011;38046;49.448;32.074;2022-07-19T08:15:23;0.73;;;0.73;;
52035;SDS011;38046;49.448;32.074;2022-07-19T08:17:49;0.95;;;0.82;;
52035;SDS011;38046;49.448;32.074;2022-07-19T08:20:14;0.90;;;0.90;;
52035;SDS011;38046;49.448;32.074;2022-07-19T08:22:40;1.13;;;0.95;;
52035;SDS011;38046;49.448;32.074;2022-07-19T08:25:06;1.17;;;1.10;;
52035;SDS011;38046;49.448;32.074;2022-07-19T08:27:32;1.40;;;1.30;;
52035;SDS011;38046;49.448;32.074;2022-07-19T08:29:58;1.08;;;1.05;;
52035;SDS011;38046;49.448;32.074;2022-07-19T08:32:25;0.93;;;0.93;;
52035;SDS011;38046;49.448;32.074;2022-07-19T08:34:50;1.27;;;1.15;;
52035;SDS011;38046;49.448;32.074;2022-07-19T08:37:16;2.40;;;1.35;;
52035;SDS011;38046;49.448;32.074;2022-07-19T08:39:42;1.02;;;0.95;;
52035;SDS011;38046;49.448;32.074;2022-07-19T08:42:08;0.80;;;0.80;;
52035;SDS011;38046;49.448;32.074;2022-07-19T08:44:35;0.90;;;0.90;;
52035;SDS011;38046;49.448;32.074;2022-07-19T08:47:04;0.90;;;0.90;;
52035;SDS011;38046;49.448;32.074;2022-07-19T08:49:31;0.82;;;0.82;;
52035;SDS011;38046;49.448;32.074;2022-07-19T08:51:57;1.20;;;1.00;;
52035;SDS011;38046;49.448;32.074;2022-07-19T08:54:24;1.83;;;1.17;;
52035;SDS011;38046;49.448;32.074;2022-07-19T08:56:50;1.05;;;0.90;;
52035;SDS011;38046;49.448;32.074;2022-07-19T08:59:34;0.90;;;0.90;;
52035;SDS011;38046;49.448;32.074;2022-07-19T09:02:00;0.70;;;0.70;;
52035;SDS011;38046;49.448;32.074;2022-07-19T09:04:26;1.35;;;1.02;;
52035;SDS011;38046;49.448;32.074;2022-07-19T09:06:57;0.75;;;0.75;;
52035;SDS011;38046;49.448;32.074;2022-07-19T09:11:50;1.10;;;1.00;;
52035;SDS011;38046;49.448;32.074;2022-07-19T09:14:18;0.73;;;0.73;;
52035;SDS011;38046;49.448;32.074;2022-07-19T09:19:29;1.02;;;0.90;;
52035;SDS011;38046;49.448;32.074;2022-07-19T09:21:57;0.80;;;0.80;;
52035;SDS011;38046;49.448;32.074;2022-07-19T09:24:32;1.00;;;1.00;;
52035;SDS011;38046;49.448;32.074;2022-07-19T09:29:36;0.98;;;0.98;;
52035;SDS011;38046;49.448;32.074;2022-07-19T09:32:11;0.60;;;0.60;;
52035;SDS011;38046;49.448;32.074;2022-07-19T09:34:51;1.38;;;1.10;;
52035;SDS011;38046;49.448;32.074;2022-07-19T09:37:28;0.88;;;0.88;;
52035;SDS011;38046;49.448;32.074;2022-07-19T09:39:56;1.40;;;1.23;;
52035;SDS011;38046;49.448;32.074;2022-07-19T09:42:36;0.80;;;0.80;;
52035;SDS011;38046;49.448;32.074;2022-07-19T09:45:15;0.93;;;0.93;;
52035;SDS011;38046;49.448;32.074;2022-07-19T09:47:46;1.05;;;0.95;;
52035;SDS011;38046;49.448;32.074;2022-07-19T09:50:14;0.90;;;0.90;;
52035;SDS011;38046;49.448;32.074;2022-07-19T09:52:42;1.00;;;1.00;;
52035;SDS011;38046;49.448;32.074;2022-07-19T09:55:09;0.80;;;0.80;;
52035;SDS011;38046;49.448;32.074;2022-07-19T09:57:39;0.90;;;0.90;;
52035;SDS011;38046;49.448;32.074;2022-07-19T10:00:13;1.83;;;1.40;;
52035;SDS011;38046;49.448;32.074;2022-07-19T10:02:45;1.00;;;1.00;;
52035;SDS011;38046;49.448;32.074;2022-07-19T10:05:14;1.08;;;0.98;;
52035;SDS011;38046;49.448;32.074;2022-07-19T10:07:40;1.30;;;1.17;;
52035;SDS011;38046;49.448;32.074;2022-07-19T10:10:10;0.90;;;0.90;;
52035;SDS011;38046;49.448;32.074;2022-07-19T10:12:41;1.00;;;1.00;;
52035;SDS011;38046;49.448;32.074;2022-07-19T10:15:09;1.23;;;0.98;;
52035;SDS011;38046;49.448;32.074;2022-07-19T10:17:38;0.63;;;0.63;;
52035;SDS011;38046;49.448;32.074;2022-07-19T10:20:16;0.95;;;0.95;;
52035;SDS011;38046;49.448;32.074;2022-07-19T10:22:45;2.55;;;1.25;;
52035;SDS011;38046;49.448;32.074;2022-07-19T10:25:14;1.13;;;0.88;;
52035;SDS011;38046;49.448;32.074;2022-07-19T10:27:46;0.98;;;0.98;;
52035;SDS011;38046;49.448;32.074;2022-07-19T10:30:23;0.80;;;0.80;;
52035;SDS011;38046;49.448;32.074;2022-07-19T10:32:51;1.05;;;0.90;;
52035;SDS011;38046;49.448;32.074;2022-07-19T10:37:46;1.20;;;1.10;;
52035;SDS011;38046;49.448;32.074;2022-07-19T10:43:12;1.00;;;0.98;;
52035;SDS011;38046;49.448;32.074;2022-07-19T10:48:35;1.40;;;1.30;;
52035;SDS011;38046;49.448;32.074;2022-07-19T10:51:06;1.40;;;1.30;;
52035;SDS011;38046;49.448;32.074;2022-07-19T10:56:21;1.52;;;1.13;;
52035;SDS011;38046;49.448;32.074;2022-07-19T10:58:54;1.42;;;1.20;;
52035;SDS011;38046;49.448;32.074;2022-07-19T11:01:22;1.10;;;1.08;;
52035;SDS011;38046;49.448;32.074;2022-07-19T11:03:50;0.95;;;0.95;;
52035;SDS011;38046;49.448;32.074;2022-07-19T11:06:18;1.30;;;1.20;;
52035;SDS011;38046;49.448;32.074;2022-07-19T11:08:53;3.75;;;2.70;;
52035;SDS011;38046;49.448;32.074;2022-07-19T11:11:21;2.10;;;1.90;;
52035;SDS011;38046;49.448;32.074;2022-07-19T11:13:49;2.17;;;1.90;;
52035;SDS011;38046;49.448;32.074;2022-07-19T11:16:17;2.60;;;1.95;;
52035;SDS011;38046;49.448;32.074;2022-07-19T11:18:43;1.70;;;1.52;;
52035;SDS011;38046;49.448;32.074;2022-07-19T11:21:10;1.42;;;1.33;;
52035;SDS011;38046;49.448;32.074;2022-07-19T11:23:40;1.10;;;1.10;;
52035;SDS011;38046;49.448;32.074;2022-07-19T11:26:09;1.10;;;1.00;;
52035;SDS011;38046;49.448;32.074;2022-07-19T11:28:36;1.55;;;1.30;;
52035;SDS011;38046;49.448;32.074;2022-07-19T11:31:20;1.08;;;1.00;;
52035;SDS011;38046;49.448;32.074;2022-07-19T11:33:47;0.70;;;0.70;;
52035;SDS011;38046;49.448;32.074;2022-07-19T11:36:15;1.10;;;1.00;;
52035;SDS011;38046;49.448;32.074;2022-07-19T11:38:43;0.73;;;0.73;;
52035;SDS011;38046;49.448;32.074;2022-07-19T11:41:17;1.63;;;1.00;;
52035;SDS011;38046;49.448;32.074;2022-07-19T11:43:52;2.92;;;1.23;;
52035;SDS011;38046;49.448;32.074;2022-07-19T11:46:33;1.30;;;1.20;;
52035;SDS011;38046;49.448;32.074;2022-07-19T11:49:06;1.25;;;1.15;;
52035;SDS011;38046;49.448;32.074;2022-07-19T11:51:34;1.88;;;0.98;;
52035;SDS011;38046;49.448;32.074;2022-07-19T11:54:02;1.20;;;1.10;;
52035;SDS011;38046;49.448;32.074;2022-07-19T11:56:31;1.40;;;1.30;;
52035;SDS011;38046;49.448;32.074;2022-07-19T11:59:05;1.02;;;1.02;;
52035;SDS011;38046;49.448;32.074;2022-07-19T12:01:34;1.42;;;1.33;;
52035;SDS011;38046;49.448;32.074;2022-07-19T12:06:38;1.05;;;1.05;;
52035;SDS011;38046;49.448;32.074;2022-07-19T12:09:16;1.38;;;1.15;;
52035;SDS011;38046;49.448;32.074;2022-07-19T12:11:51;1.30;;;1.25;;
52035;SDS011;38046;49.448;32.074;2022-07-19T12:14:22;1.10;;;1.10;;
52035;SDS011;38046;49.448;32.074;2022-07-19T12:17:14;1.58;;;1.48;;
52035;SDS011;38046;49.448;32.074;2022-07-19T12:19:45;3.60;;;1.58;;
52035;SDS011;38046;49.448;32.074;2022-07-19T12:24:55;1.40;;;1.30;;
52035;SDS011;38046;49.448;32.074;2022-07-19T12:27:21;1.85;;;1.63;;
52035;SDS011;38046;49.448;32.074;2022-07-19T12:29:52;1.48;;;1.40;;
52035;SDS011;38046;49.448;32.074;2022-07-19T12:32:29;2.08;;;1.65;;
52035;SDS011;38046;49.448;32.074;2022-07-19T12:35:17;1.35;;;1.25;;
52035;SDS011;38046;49.448;32.074;2022-07-19T12:37:43;1.77;;;1.58;;
52035;SDS011;38046;49.448;32.074;2022-07-19T12:40:23;1.55;;;1.45;;
52035;SDS011;38046;49.448;32.074;2022-07-19T12:42:53;1.70;;;1.60;;
52035;SDS011;38046;49.448;32.074;2022-07-19T12:45:25;1.83;;;1.45;;
52035;SDS011;38046;49.448;32.074;2022-07-19T12:47:52;2.55;;;1.50;;
52035;SDS011;38046;49.448;32.074;2022-07-19T12:50:22;2.38;;;1.55;;
52035;SDS011;38046;49.448;32.074;2022-07-19T12:52:51;1.83;;;1.25;;
52035;SDS011;38046;49.448;32.074;2022-07-19T12:55:18;1.45;;;1.35;;
52035;SDS011;38046;49.448;32.074;2022-07-19T12:57:45;1.70;;;1.60;;
52035;SDS011;38046;49.448;32.074;2022-07-19T13:00:12;1.80;;;1.70;;
52035;SDS011;38046;49.448;32.074;2022-07-19T13:02:38;1.88;;;1.77;;
52035;SDS011;38046;49.448;32.074;2022-07-19T13:05:04;1.80;;;1.70;;
52035;SDS011;38046;49.448;32.074;2022-07-19T13:07:30;2.22;;;1.80;;
52035;SDS011;38046;49.448;32.074;2022-07-19T13:09:56;1.33;;;1.23;;
52035;SDS011;38046;49.448;32.074;2022-07-19T13:12:21;1.90;;;1.20;;
52035;SDS011;38046;49.448;32.074;2022-07-19T13:14:47;1.77;;;1.67;;
52035;SDS011;38046;49.448;32.074;2022-07-19T13:17:13;1.85;;;1.70;;
52035;SDS011;38046;49.448;32.074;2022-07-19T13:19:39;1.70;;;1.60;;
52035;SDS011;38046;49.448;32.074;2022-07-19T13:22:05;2.10;;;1.30;;
52035;SDS011;38046;49.448;32.074;2022-07-19T13:24:31;1.42;;;1.33;;
52035;SDS011;38046;49.448;32.074;2022-07-19T13:26:57;1.65;;;1.55;;
52035;SDS011;38046;49.448;32.074;2022-07-19T13:29:23;1.50;;;1.33;;
52035;SDS011;38046;49.448;32.074;2022-07-19T13:31:49;2.95;;;1.60;;
52035;SDS011;38046;49.448;32.074;2022-07-19T13:34:15;1.33;;;1.27;;
52035;SDS011;38046;49.448;32.074;2022-07-19T13:36:41;1.50;;;1.40;;
52035;SDS011;38046;49.448;32.074;2022-07-19T13:39:07;1.23;;;1.13;;
52035;SDS011;38046;49.448;32.074;2022-07-19T13:41:35;1.67;;;1.58;;
52035;SDS011;38046;49.448;32.074;2022-07-19T13:44:02;1.42;;;1.33;;
52035;SDS011;38046;49.448;32.074;2022-07-19T13:46:28;2.15;;;1.70;;
52035;SDS011;38046;49.448;32.074;2022-07-19T13:48:54;3.20;;;1.75;;
52035;SDS011;38046;49.448;32.074;2022-07-19T13:51:19;2.75;;;2.00;;
52035;SDS011;38046;49.448;32.074;2022-07-19T13:53:45;2.28;;;1.70;;
52035;SDS011;38046;49.448;32.074;2022-07-19T13:56:11;1.48;;;1.38;;
52035;SDS011;38046;49.448;32.074;2022-07-19T13:58:37;1.50;;;1.40;;
52035;SDS011;38046;49.448;32.074;2022-07-19T14:01:03;1.60;;;1.50;;
52035;SDS011;38046;49.448;32.074;2022-07-19T14:03:29;1.85;;;1.67;;
52035;SDS011;38046;49.448;32.074;2022-07-19T14:05:55;1.85;;;1.75;;
52035;SDS011;38046;49.448;32.074;2022-07-19T14:08:21;1.58;;;1.48;;
52035;SDS011;38046;49.448;32.074;2022-07-19T14:10:47;1.20;;;1.20;;
52035;SDS011;38046;49.448;32.074;2022-07-19T14:13:12;2.00;;;1.83;;
52035;SDS011;38046;49.448;32.074;2022-07-19T14:15:38;2.08;;;1.73;;
52035;SDS011;38046;49.448;32.074;2022-07-19T14:18:05;2.05;;;1.58;;
52035;SDS011;38046;49.448;32.074;2022-07-19T14:20:31;1.00;;;1.00;;
52035;SDS011;38046;49.448;32.074;2022-07-19T14:22:56;1.90;;;1.80;;
52035;SDS011;38046;49.448;32.074;2022-07-19T14:25:22;2.10;;;1.90;;
52035;SDS011;38046;49.448;32.074;2022-07-19T14:27:48;2.65;;;1.98;;
52035;SDS011;38046;49.448;32.074;2022-07-19T14:30:14;1.73;;;1.60;;
52035;SDS011;38046;49.448;32.074;2022-07-19T14:32:40;2.30;;;1.77;;
52035;SDS011;38046;49.448;32.074;2022-07-19T14:35:05;1.83;;;1.70;;
52035;SDS011;38046;49.448;32.074;2022-07-19T14:37:31;2.25;;;1.52;;
52035;SDS011;38046;49.448;32.074;2022-07-19T14:39:57;1.70;;;1.60;;
52035;SDS011;38046;49.448;32.074;2022-07-19T14:42:23;1.48;;;1.17;;
52035;SDS011;38046;49.448;32.074;2022-07-19T14:44:49;2.92;;;1.67;;
52035;SDS011;38046;49.448;32.074;2022-07-19T14:47:14;1.52;;;1.42;;
52035;SDS011;38046;49.448;32.074;2022-07-19T14:49:40;1.58;;;1.27;;
52035;SDS011;38046;49.448;32.074;2022-07-19T14:52:06;1.80;;;1.70;;
52035;SDS011;38046;49.448;32.074;2022-07-19T14:54:32;1.55;;;1.45;;
52035;SDS011;38046;49.448;32.074;2022-07-19T14:56:58;2.92;;;1.13;;